createdAt,value
2022-09-12T00:00:41.561Z,60.32
2022-09-12T00:03:27.450Z,60.38
2022-09-12T00:06:22.875Z,60.42
2022-09-12T00:09:14.587Z,60.35
2022-09-12T00:12:00.779Z,60.38
2022-09-12T00:14:46.719Z,60.30
2022-09-12T00:17:35.230Z,60.52
2022-09-12T00:20:21.235Z,60.40
2022-09-12T00:23:07.073Z,60.11
2022-09-12T00:25:53.218Z,60.59
2022-09-12T00:28:40.653Z,60.50
2022-09-12T00:31:27.284Z,60.43
2022-09-12T00:34:13.800Z,60.49
2022-09-12T00:36:59.769Z,60.63
2022-09-12T00:39:45.719Z,60.56
2022-09-12T00:42:31.612Z,60.55
2022-09-12T00:45:30.588Z,60.77
2022-09-12T00:48:21.774Z,61.16
2022-09-12T00:51:08.637Z,60.67
2022-09-12T00:53:55.784Z,60.91
2022-09-12T00:56:43.765Z,60.83
2022-09-12T00:59:49.843Z,60.73
2022-09-12T01:02:36.136Z,60.78
2022-09-12T01:05:23.675Z,60.84
2022-09-12T01:08:09.651Z,60.69
2022-09-12T01:10:56.804Z,60.58
2022-09-12T01:13:44.301Z,60.96
2022-09-12T01:16:30.235Z,60.85
2022-09-12T01:19:46.632Z,60.97
2022-09-12T01:22:44.776Z,60.83
2022-09-12T01:25:30.945Z,60.78
2022-09-12T01:28:35.752Z,61.08
2022-09-12T01:31:47.636Z,61.12
2022-09-12T01:34:33.392Z,61.03
2022-09-12T01:37:28.573Z,61.01
2022-09-12T01:40:43.995Z,61.10
2022-09-12T01:43:36.769Z,60.88
2022-09-12T01:46:45.493Z,61.05
2022-09-12T01:49:52.921Z,61.03
2022-09-12T01:52:55.566Z,60.89
2022-09-12T01:55:49.981Z,60.77
2022-09-12T01:58:43.770Z,61.11
2022-09-12T02:01:34.684Z,61.06
2022-09-12T02:04:24.509Z,61.04
2022-09-12T02:07:18.632Z,61.07
2022-09-12T02:10:13.068Z,61.21
2022-09-12T02:13:04.244Z,60.82
2022-09-12T02:15:54.721Z,60.93
2022-09-12T02:18:45.826Z,60.89
2022-09-12T02:21:33.108Z,60.74
2022-09-12T02:24:21.316Z,60.86
2022-09-12T02:27:15.293Z,60.91
2022-09-12T02:30:01.627Z,61.07
2022-09-12T02:33:06.561Z,61.46
2022-09-12T02:36:26.920Z,61.68
2022-09-12T02:39:13.009Z,61.50
2022-09-12T02:42:01.027Z,62.19
2022-09-12T02:44:46.927Z,61.53
2022-09-12T02:47:38.068Z,61.29
2022-09-12T02:50:24.472Z,61.39
2022-09-12T02:53:11.333Z,61.33
2022-09-12T02:55:57.480Z,61.36
2022-09-12T02:58:44.058Z,61.11
2022-09-12T03:01:42.395Z,61.39
2022-09-12T03:05:16.076Z,62.31
2022-09-12T03:08:10.732Z,62.07
2022-09-12T03:11:15.989Z,61.69
2022-09-12T03:14:49.866Z,61.44
2022-09-12T03:17:52.450Z,61.17
2022-09-12T03:20:38.302Z,61.29
2022-09-12T03:23:25.653Z,61.29
2022-09-12T03:26:26.669Z,61.29
2022-09-12T03:29:13.517Z,61.30
2022-09-12T03:31:59.551Z,61.61
2022-09-12T03:34:45.704Z,61.10
2022-09-12T03:37:31.892Z,61.23
2022-09-12T03:40:18.282Z,61.20
2022-09-12T03:43:05.781Z,61.01
2022-09-12T03:45:53.487Z,61.68
2022-09-12T03:48:40.676Z,61.37
2022-09-12T03:51:26.587Z,61.16
2022-09-12T03:54:12.587Z,61.44
2022-09-12T03:56:58.546Z,61.22
2022-09-12T03:59:44.597Z,61.28
2022-09-12T04:02:30.696Z,61.31
2022-09-12T04:05:16.556Z,61.24
2022-09-12T04:08:02.792Z,61.45
2022-09-12T04:10:48.993Z,61.47
2022-09-12T04:13:35.541Z,63.84
2022-09-12T04:16:21.814Z,61.87
2022-09-12T04:19:07.891Z,61.76
2022-09-12T04:21:53.814Z,62.15
2022-09-12T04:24:39.692Z,61.58
2022-09-12T04:27:25.562Z,61.49
2022-09-12T04:30:11.930Z,61.51
2022-09-12T04:32:57.914Z,61.45
2022-09-12T04:35:45.361Z,61.49
2022-09-12T04:38:31.660Z,61.10
2022-09-12T04:41:22.183Z,61.24
2022-09-12T04:44:11.706Z,61.22
2022-09-12T04:46:57.787Z,61.41
2022-09-12T04:49:43.793Z,61.47
2022-09-12T04:52:29.847Z,61.35
2022-09-12T04:55:15.885Z,61.58
2022-09-12T04:58:02.480Z,61.43
2022-09-12T05:00:49.030Z,61.47
2022-09-12T05:03:35.188Z,61.45
2022-09-12T05:06:26.684Z,61.48
2022-09-12T05:09:14.203Z,61.35
2022-09-12T05:12:05.255Z,61.39
2022-09-12T05:14:51.917Z,61.27
2022-09-12T05:17:38.064Z,61.32
2022-09-12T05:20:24.030Z,61.30
2022-09-12T05:23:09.877Z,61.43
2022-09-12T05:25:57.988Z,61.37
2022-09-12T05:28:44.318Z,61.28
2022-09-12T05:31:30.068Z,61.77
2022-09-12T05:34:15.979Z,61.64
2022-09-12T05:37:02.001Z,61.50
2022-09-12T05:39:48.483Z,61.78
2022-09-12T05:42:34.358Z,61.59
2022-09-12T05:45:21.214Z,61.92
2022-09-12T05:48:07.156Z,61.68
2022-09-12T05:50:53.029Z,61.58
2022-09-12T05:53:40.326Z,61.64
2022-09-12T05:56:28.293Z,61.41
2022-09-12T05:59:20.049Z,61.47
2022-09-12T06:02:06.483Z,61.36
2022-09-12T06:04:52.354Z,61.58
2022-09-12T06:07:38.409Z,61.35
2022-09-12T06:10:26.354Z,61.33
2022-09-12T06:13:12.834Z,61.34
2022-09-12T06:16:16.790Z,61.39
2022-09-12T06:19:06.990Z,61.08
2022-09-12T06:21:53.429Z,61.06
2022-09-12T06:24:39.707Z,61.32
2022-09-12T06:27:25.469Z,61.30
2022-09-12T06:30:12.398Z,61.32
2022-09-12T06:32:58.141Z,61.34
2022-09-12T06:35:44.182Z,61.35
2022-09-12T06:38:31.289Z,61.87
2022-09-12T06:41:17.385Z,61.37
2022-09-12T06:44:04.058Z,61.37
2022-09-12T06:46:50.294Z,61.18
2022-09-12T06:49:36.450Z,61.09
2022-09-12T06:52:23.031Z,61.26
2022-09-12T06:55:09.320Z,61.27
2022-09-12T06:57:55.623Z,61.08
2022-09-12T07:00:42.086Z,61.36
2022-09-12T07:03:28.247Z,61.23
2022-09-12T07:06:17.397Z,60.84
2022-09-12T07:09:05.096Z,60.57
2022-09-12T07:11:51.158Z,60.93
2022-09-12T07:14:37.093Z,60.72
2022-09-12T07:17:22.979Z,60.66
2022-09-12T07:20:08.985Z,60.74
2022-09-12T07:23:00.093Z,60.41
2022-09-12T07:25:53.666Z,60.49
2022-09-12T07:28:40.127Z,60.20
2022-09-12T07:31:27.801Z,60.49
2022-09-12T07:34:14.022Z,60.34
2022-09-12T07:37:00.556Z,60.35
2022-09-12T07:39:46.625Z,60.21
2022-09-12T07:42:32.599Z,60.12
2022-09-12T07:45:18.482Z,60.03
2022-09-12T07:48:04.824Z,59.96
2022-09-12T07:51:01.612Z,59.61
2022-09-12T07:53:49.034Z,59.85
2022-09-12T07:56:38.855Z,59.90
2022-09-12T07:59:48.889Z,59.53
2022-09-12T08:02:31.877Z,59.62
2022-09-12T08:05:17.790Z,59.74
2022-09-12T08:08:03.946Z,59.87
2022-09-12T08:10:49.712Z,59.66
2022-09-12T08:13:37.398Z,59.87
2022-09-12T08:16:29.601Z,60.00
2022-09-12T08:19:15.634Z,59.86
2022-09-12T08:22:01.419Z,59.54
2022-09-12T08:24:47.176Z,59.27
2022-09-12T08:27:33.092Z,59.73
2022-09-12T08:30:18.917Z,59.64
2022-09-12T08:33:05.003Z,59.39
2022-09-12T08:35:50.901Z,59.78
2022-09-12T08:38:38.365Z,59.21
2022-09-12T08:41:39.130Z,59.08
2022-09-12T08:44:24.981Z,59.00
2022-09-12T08:47:19.978Z,58.98
2022-09-12T08:50:15.336Z,58.59
2022-09-12T08:53:17.296Z,58.60
2022-09-12T08:56:04.833Z,58.45
2022-09-12T08:58:51.093Z,58.61
2022-09-12T09:01:45.510Z,58.38
2022-09-12T09:04:56.800Z,58.21
2022-09-12T09:08:14.364Z,58.47
2022-09-12T09:11:14.270Z,58.42
2022-09-12T09:14:30.472Z,58.66
2022-09-12T09:17:35.362Z,58.06
2022-09-12T09:20:48.208Z,57.91
2022-09-12T09:23:45.028Z,57.89
2022-09-12T09:26:48.544Z,57.47
2022-09-12T09:29:41.356Z,57.41
2022-09-12T09:32:36.245Z,57.18
2022-09-12T09:35:44.914Z,57.27
2022-09-12T09:38:54.306Z,56.84
2022-09-12T09:42:10.270Z,56.82
2022-09-12T09:44:58.790Z,56.57
2022-09-12T09:47:58.177Z,56.22
2022-09-12T09:50:45.463Z,56.10
2022-09-12T09:54:10.364Z,56.51
2022-09-12T09:56:56.333Z,56.01
2022-09-12T09:59:42.275Z,55.56
2022-09-12T10:02:28.279Z,55.54
2022-09-12T10:05:17.341Z,55.04
2022-09-12T10:08:04.674Z,55.05
2022-09-12T10:11:23.013Z,54.54
2022-09-12T10:14:37.163Z,53.11
2022-09-12T10:17:34.182Z,53.95
2022-09-12T10:20:34.483Z,54.21
2022-09-12T10:23:37.292Z,53.71
2022-09-12T10:26:23.333Z,53.62
2022-09-12T10:29:17.230Z,52.17
2022-09-12T10:32:05.775Z,53.42
2022-09-12T10:34:55.308Z,53.10
2022-09-12T10:37:41.855Z,53.35
2022-09-12T10:40:32.677Z,51.31
2022-09-12T10:43:27.517Z,52.47
2022-09-12T10:46:16.664Z,52.41
2022-09-12T10:49:14.905Z,52.12
2022-09-12T10:52:17.552Z,52.04
2022-09-12T10:55:03.609Z,52.34
2022-09-12T10:58:12.311Z,52.45
2022-09-12T11:01:12.282Z,52.33
2022-09-12T11:04:35.440Z,52.01
2022-09-12T11:07:39.504Z,50.02
2022-09-12T11:10:31.954Z,51.15
2022-09-12T11:13:38.940Z,51.34
2022-09-12T11:16:42.995Z,51.03
2022-09-12T11:19:44.311Z,51.18
2022-09-12T11:22:49.089Z,49.57
2022-09-12T11:25:44.574Z,49.15
2022-09-12T11:28:45.330Z,50.60
2022-09-12T11:31:42.045Z,50.35
2022-09-12T11:35:03.006Z,50.63
2022-09-12T11:38:04.978Z,50.21
2022-09-12T11:41:00.478Z,48.25
2022-09-12T11:44:05.170Z,50.05
2022-09-12T11:46:52.211Z,50.10
2022-09-12T11:49:44.294Z,49.63
2022-09-12T11:52:35.736Z,49.63
2022-09-12T11:55:30.284Z,49.94
2022-09-12T12:03:07.582Z,49.72
2022-09-12T12:06:21.513Z,49.49
2022-09-12T12:09:07.639Z,48.84
2022-09-12T12:11:57.833Z,48.80
2022-09-12T12:14:47.054Z,48.60
2022-09-12T12:17:33.580Z,48.56
2022-09-12T12:20:19.801Z,48.70
2022-09-12T12:23:06.047Z,48.48
2022-09-12T12:25:57.371Z,48.18
2022-09-12T12:28:49.553Z,48.47
2022-09-12T12:32:10.445Z,48.56
2022-09-12T12:35:02.509Z,48.03
2022-09-12T12:37:52.080Z,48.26
2022-09-12T12:40:38.219Z,48.05
2022-09-12T12:43:32.254Z,47.90
2022-09-12T12:46:20.489Z,47.36
2022-09-12T12:49:30.152Z,43.74
2022-09-12T12:52:17.544Z,47.17
2022-09-12T12:55:05.224Z,47.34
2022-09-12T12:57:52.337Z,47.25
2022-09-12T13:00:40.173Z,46.99
2022-09-12T13:03:31.089Z,46.96
2022-09-12T13:06:36.207Z,46.94
2022-09-12T13:09:48.165Z,45.71
2022-09-12T13:12:36.777Z,46.78
2022-09-12T13:15:42.894Z,43.96
2022-09-12T13:18:49.288Z,46.41
2022-09-12T13:21:35.535Z,46.87
2022-09-12T13:24:22.961Z,46.51
2022-09-12T13:27:24.844Z,46.45
2022-09-12T13:30:15.577Z,46.40
2022-09-12T13:33:48.710Z,46.21
2022-09-12T13:37:07.989Z,46.12
2022-09-12T13:40:33.469Z,46.30
2022-09-12T13:43:27.224Z,46.39
2022-09-12T13:46:17.683Z,46.37
2022-09-12T13:49:19.078Z,45.91
2022-09-12T13:52:08.846Z,46.21
2022-09-12T13:54:56.939Z,45.93
2022-09-12T13:57:43.161Z,45.96
2022-09-12T14:00:32.224Z,45.67
2022-09-12T14:04:10.117Z,45.15
2022-09-12T14:06:57.026Z,45.03
2022-09-12T14:09:45.191Z,44.89
2022-09-12T14:12:42.750Z,42.84
2022-09-12T14:15:33.712Z,44.94
2022-09-12T14:18:26.300Z,44.70
2022-09-12T14:21:27.220Z,44.52
2022-09-12T14:24:14.848Z,44.09
2022-09-12T14:27:01.192Z,44.12
2022-09-12T14:29:47.519Z,44.33
2022-09-12T14:32:33.596Z,43.92
2022-09-12T14:35:20.417Z,43.96
2022-09-12T14:38:08.763Z,43.97
2022-09-12T14:41:03.061Z,43.97
2022-09-12T14:43:52.980Z,43.52
2022-09-12T14:46:40.248Z,43.28
2022-09-12T14:49:35.256Z,43.26
2022-09-12T14:52:30.157Z,42.97
2022-09-12T14:55:16.257Z,42.94
2022-09-12T14:58:15.600Z,42.69
2022-09-12T15:01:22.970Z,39.97
2022-09-12T15:04:08.803Z,42.53
2022-09-12T15:06:54.687Z,42.08
2022-09-12T15:09:45.595Z,42.02
2022-09-12T15:12:32.977Z,42.59
2022-09-12T15:15:20.954Z,41.67
2022-09-12T15:18:07.385Z,39.33
2022-09-12T15:20:58.804Z,41.50
2022-09-12T15:23:49.994Z,41.48
2022-09-12T15:26:36.503Z,41.23
2022-09-12T15:29:22.437Z,41.54
2022-09-12T15:32:15.090Z,41.11
2022-09-12T15:35:00.937Z,41.31
2022-09-12T15:37:47.330Z,41.34
2022-09-12T15:40:33.477Z,41.13
2022-09-12T15:43:20.897Z,40.65
2022-09-12T15:46:07.221Z,40.70
2022-09-12T15:48:53.281Z,40.29
2022-09-12T15:51:40.070Z,40.43
2022-09-12T15:54:26.713Z,40.33
2022-09-12T15:57:12.514Z,40.64
2022-09-12T15:59:58.624Z,40.66
2022-09-12T16:02:46.279Z,40.54
2022-09-12T16:05:33.385Z,40.46
2022-09-12T16:08:19.563Z,40.37
2022-09-12T16:11:08.776Z,40.55
2022-09-12T16:13:56.775Z,40.56
2022-09-12T16:16:43.505Z,40.63
2022-09-12T16:19:29.413Z,40.60
2022-09-12T16:22:15.288Z,40.60
2022-09-12T16:25:01.332Z,40.91
2022-09-12T16:27:47.205Z,40.58
2022-09-12T16:30:34.023Z,40.92
2022-09-12T16:33:20.019Z,41.03
2022-09-12T16:36:08.619Z,41.17
2022-09-12T16:38:54.614Z,40.92
2022-09-12T16:41:42.763Z,41.11
2022-09-12T16:44:28.901Z,40.97
2022-09-12T16:47:15.278Z,41.24
2022-09-12T16:50:01.266Z,41.54
2022-09-12T16:52:47.089Z,41.29
2022-09-12T16:55:33.006Z,41.28
2022-09-12T16:58:19.040Z,41.19
2022-09-12T17:01:19.672Z,41.67
2022-09-12T17:04:06.838Z,41.38
2022-09-12T17:06:52.774Z,41.54
2022-09-12T17:09:38.731Z,41.41
2022-09-12T17:12:24.739Z,41.53
2022-09-12T17:15:10.797Z,41.33
2022-09-12T17:17:57.228Z,41.62
2022-09-12T17:20:43.333Z,41.66
2022-09-12T17:23:29.868Z,41.75
2022-09-12T17:26:15.856Z,41.80
2022-09-12T17:29:02.261Z,41.85
2022-09-12T17:31:48.912Z,41.87
2022-09-12T17:34:34.848Z,42.09
2022-09-12T17:37:21.832Z,41.99
2022-09-12T17:40:09.574Z,41.92
2022-09-12T17:42:56.656Z,42.15
2022-09-12T17:45:42.991Z,42.17
2022-09-12T17:48:29.222Z,42.22
2022-09-12T17:51:15.286Z,42.29
2022-09-12T17:54:04.741Z,42.48
2022-09-12T17:56:51.950Z,42.67
2022-09-12T17:59:37.825Z,42.78
2022-09-12T18:02:23.928Z,42.70
2022-09-12T18:05:10.255Z,43.00
2022-09-12T18:07:56.311Z,42.79
2022-09-12T18:10:42.311Z,43.24
2022-09-12T18:13:28.318Z,43.13
2022-09-12T18:16:14.663Z,43.18
2022-09-12T18:19:01.497Z,43.20
2022-09-12T18:21:47.528Z,43.32
2022-09-12T18:24:33.922Z,43.18
2022-09-12T18:27:20.022Z,43.20
2022-09-12T18:30:22.238Z,43.58
2022-09-12T18:33:08.425Z,43.43
2022-09-12T18:35:54.540Z,43.57
2022-09-12T18:38:41.466Z,43.60
2022-09-12T18:41:28.997Z,43.55
2022-09-12T18:44:15.304Z,43.74
2022-09-12T18:47:02.294Z,43.67
2022-09-12T18:49:48.596Z,43.79
2022-09-12T18:52:34.553Z,43.81
2022-09-12T18:55:20.928Z,44.12
2022-09-12T18:58:06.756Z,44.22
2022-09-12T19:00:52.697Z,44.21
2022-09-12T19:03:38.604Z,44.32
2022-09-12T19:06:26.844Z,44.40
2022-09-12T19:09:15.296Z,44.44
2022-09-12T19:12:01.586Z,44.55
2022-09-12T19:14:47.814Z,44.79
2022-09-12T19:17:33.733Z,44.74
2022-09-12T19:20:19.552Z,45.17
2022-09-12T19:23:05.528Z,45.19
2022-09-12T19:25:59.096Z,45.50
2022-09-12T19:28:45.477Z,45.40
2022-09-12T19:31:32.155Z,45.30
2022-09-12T19:34:18.392Z,45.66
2022-09-12T19:37:04.577Z,45.49
2022-09-12T19:39:50.593Z,45.85
2022-09-12T19:42:36.383Z,45.79
2022-09-12T19:45:22.133Z,46.01
2022-09-12T19:48:08.239Z,45.94
2022-09-12T19:51:01.579Z,46.04
2022-09-12T19:53:48.566Z,46.09
2022-09-12T19:56:34.385Z,46.14
2022-09-12T19:59:20.405Z,46.63
2022-09-12T20:02:06.629Z,46.42
2022-09-12T20:04:52.395Z,46.33
2022-09-12T20:07:38.450Z,46.41
2022-09-12T20:10:24.587Z,46.42
2022-09-12T20:13:10.665Z,46.76
2022-09-12T20:15:56.684Z,46.61
2022-09-12T20:18:43.636Z,46.48
2022-09-12T20:21:38.612Z,46.86
2022-09-12T20:24:32.926Z,46.99
2022-09-12T20:27:19.616Z,47.05
2022-09-12T20:30:06.104Z,47.16
2022-09-12T20:32:51.980Z,47.41
2022-09-12T20:35:38.014Z,47.46
2022-09-12T20:38:24.210Z,47.56
2022-09-12T20:41:11.625Z,47.51
2022-09-12T20:43:57.884Z,47.14
2022-09-12T20:46:43.925Z,47.65
2022-09-12T20:49:30.167Z,47.74
2022-09-12T20:52:16.070Z,47.98
2022-09-12T20:55:02.086Z,47.88
2022-09-12T20:57:50.117Z,47.94
2022-09-12T21:00:38.462Z,48.05
2022-09-12T21:03:25.548Z,47.96
2022-09-12T21:06:17.011Z,48.00
2022-09-12T21:09:03.046Z,48.12
2022-09-12T21:11:49.356Z,48.10
2022-09-12T21:14:35.109Z,48.26
2022-09-12T21:17:21.204Z,48.35
2022-09-12T21:20:11.256Z,48.12
2022-09-12T21:22:57.757Z,48.36
2022-09-12T21:25:52.060Z,48.50
2022-09-12T21:28:38.529Z,48.37
2022-09-12T21:31:25.650Z,48.46
2022-09-12T21:34:12.114Z,48.41
2022-09-12T21:36:58.401Z,49.04
2022-09-12T21:39:44.825Z,48.89
2022-09-12T21:42:31.780Z,49.06
2022-09-12T21:45:18.460Z,48.93
2022-09-12T21:48:04.948Z,48.94
2022-09-12T21:50:51.527Z,49.26
2022-09-12T21:53:37.741Z,48.93
2022-09-12T21:56:23.961Z,49.28
2022-09-12T21:59:09.872Z,49.35
2022-09-12T22:01:55.893Z,49.40
2022-09-12T22:04:41.921Z,49.42
2022-09-12T22:07:28.368Z,49.35
2022-09-12T22:10:15.289Z,49.51
2022-09-12T22:13:01.764Z,49.64
2022-09-12T22:15:51.990Z,49.61
2022-09-12T22:18:38.548Z,49.63
2022-09-12T22:21:24.843Z,49.67
2022-09-12T22:24:29.154Z,49.75
2022-09-12T22:27:15.297Z,49.76
2022-09-12T22:30:01.477Z,49.90
2022-09-12T22:32:49.830Z,49.94
2022-09-12T22:35:36.293Z,49.91
2022-09-12T22:38:22.310Z,49.91
2022-09-12T22:41:11.177Z,49.94
2022-09-12T22:43:58.173Z,49.84
2022-09-12T22:46:45.082Z,50.06
2022-09-12T22:49:31.211Z,49.97
2022-09-12T22:52:17.184Z,50.10
2022-09-12T22:55:03.481Z,50.18
2022-09-12T22:57:49.776Z,50.42
2022-09-12T23:00:35.670Z,50.31
2022-09-12T23:03:21.708Z,50.28
2022-09-12T23:06:08.136Z,50.50
2022-09-12T23:08:54.419Z,50.43
2022-09-12T23:11:40.771Z,50.47
2022-09-12T23:14:26.485Z,50.66
2022-09-12T23:17:13.029Z,50.49
2022-09-12T23:19:59.150Z,50.73
2022-09-12T23:22:44.994Z,50.68
2022-09-12T23:25:31.019Z,50.87
2022-09-12T23:28:16.547Z,50.50
2022-09-12T23:31:03.069Z,50.82
2022-09-12T23:33:50.086Z,51.18
2022-09-12T23:36:36.416Z,50.85
2022-09-12T23:39:23.442Z,50.95
2022-09-12T23:42:09.341Z,50.93
2022-09-12T23:44:55.272Z,51.04
2022-09-12T23:47:41.503Z,51.14
2022-09-12T23:50:27.873Z,51.38
2022-09-12T23:53:15.022Z,51.04
2022-09-12T23:56:01.754Z,51.56
2022-09-12T23:58:48.314Z,51.06
